Time;durP1;ratioP1;P1;durP2;ratioP2;P2;SDS_P1;SDS_P2;PMS_P1;PMS_P2;Temp;Humidity;BMP_temperature;BMP_pressure;BME280_temperature;BME280_humidity;BME280_pressure;Samples;Min_cycle;Max_cycle;Signal;HPM_P1;HPM_P2
2021/10/23 00:00:13;;;;;;;7.70;1.90;;;;;;;9.23;45.77;98797.41;113561;1192;111335;-72
2021/10/23 00:03:02;;;;;;;4.30;1.60;;;;;;;9.22;46.02;98798.95;113399;1186;97673;-73
2021/10/23 00:05:31;;;;;;;4.90;1.90;;;;;;;9.21;45.83;98805.70;113387;1193;107142;-72
2021/10/23 00:07:58;;;;;;;10.40;2.90;;;;;;;9.21;45.95;98806.58;113550;1193;97642;-72
2021/10/23 00:10:28;;;;;;;10.40;2.60;;;;;;;9.19;45.91;98813.59;113718;1193;97639;-73
2021/10/23 00:12:57;;;;;;;9.60;2.20;;;;;;;9.18;45.83;98812.62;113679;1192;110202;-72
2021/10/23 00:15:26;;;;;;;6.80;2.20;;;;;;;9.16;45.92;98816.87;113662;1193;97580;-70
2021/10/23 00:17:54;;;;;;;10.30;2.20;;;;;;;9.15;45.85;98815.88;113460;1193;107371;-71
2021/10/23 00:20:23;;;;;;;9.00;2.30;;;;;;;9.13;45.75;98812.16;113806;1193;97664;-72
2021/10/23 00:22:53;;;;;;;8.60;2.50;;;;;;;9.11;45.85;98815.81;113782;1192;95115;-71
2021/10/23 00:25:23;;;;;;;9.80;2.30;;;;;;;9.11;45.87;98820.23;113349;1195;111325;-71
2021/10/23 00:27:50;;;;;;;7.10;2.00;;;;;;;9.10;45.86;98824.73;113751;1192;97669;-71
2021/10/23 00:30:18;;;;;;;9.50;2.00;;;;;;;9.09;45.82;98827.64;113329;1193;107503;-72
2021/10/23 00:32:46;;;;;;;5.90;2.60;;;;;;;9.10;45.80;98821.73;113274;1193;97717;-73
2021/10/23 00:35:14;;;;;;;6.10;1.90;;;;;;;9.09;45.93;98826.69;113545;1192;98162;-72
2021/10/23 00:37:42;;;;;;;9.20;2.10;;;;;;;9.10;45.83;98827.40;113579;1192;109840;-71
2021/10/23 00:40:13;;;;;;;7.70;2.10;;;;;;;9.10;45.83;98829.33;113418;1193;97604;-72
2021/10/23 00:42:41;;;;;;;7.60;1.80;;;;;;;9.10;45.81;98829.49;113610;1192;107202;-71
2021/10/23 00:45:09;;;;;;;4.70;1.80;;;;;;;9.11;45.83;98829.45;113465;1193;97560;-70
2021/10/23 00:47:36;;;;;;;5.10;2.20;;;;;;;9.10;45.65;98827.73;113467;1193;95042;-68
2021/10/23 00:50:05;;;;;;;7.70;2.10;;;;;;;9.09;45.69;98832.39;113454;1193;110841;-71
2021/10/23 00:52:33;;;;;;;7.00;2.00;;;;;;;9.09;45.68;98828.67;113738;1192;97534;-71
2021/10/23 00:55:02;;;;;;;5.70;2.30;;;;;;;9.08;45.72;98836.50;113642;1193;107283;-71
2021/10/23 00:57:30;;;;;;;7.80;2.30;;;;;;;9.08;45.76;98838.98;113805;1192;97509;-72
2021/10/23 00:59:59;;;;;;;7.90;2.20;;;;;;;9.08;45.81;98837.25;113851;1194;97613;-72
2021/10/23 01:02:27;;;;;;;12.30;2.30;;;;;;;9.08;45.60;98837.95;113788;1193;111139;-72
2021/10/23 01:04:56;;;;;;;8.40;2.20;;;;;;;9.09;45.71;98838.77;113825;1192;96207;-72
2021/10/23 01:07:24;;;;;;;9.70;2.10;;;;;;;9.10;45.77;98842.77;113573;1192;107478;-72
2021/10/23 01:09:54;;;;;;;8.90;1.90;;;;;;;9.11;45.64;98846.75;113806;1193;97551;-73
2021/10/23 01:12:23;;;;;;;7.80;2.50;;;;;;;9.12;45.69;98845.32;113794;1192;97602;-73
2021/10/23 01:14:52;;;;;;;8.20;2.10;;;;;;;9.13;45.70;98846.27;113683;1192;111204;-73
2021/10/23 01:17:23;;;;;;;13.80;2.40;;;;;;;9.14;45.76;98840.36;113432;1194;97693;-73
2021/10/23 01:19:57;;;;;;;12.50;2.20;;;;;;;9.15;45.80;98851.11;113411;1193;107523;-74
2021/10/23 01:22:30;;;;;;;8.90;2.20;;;;;;;9.15;45.79;98856.05;113717;1193;97663;-74
2021/10/23 01:24:57;;;;;;;5.60;1.90;;;;;;;9.14;45.75;98858.44;113779;1193;97555;-74
2021/10/23 01:27:25;;;;;;;9.40;2.40;;;;;;;9.12;45.73;98859.42;113784;1192;110670;-73
2021/10/23 01:29:53;;;;;;;8.50;2.20;;;;;;;9.11;45.75;98863.25;113832;1193;95537;-72
2021/10/23 01:32:21;;;;;;;13.00;2.30;;;;;;;9.08;45.77;98865.58;113802;1193;107796;-73
2021/10/23 01:34:49;;;;;;;9.20;2.40;;;;;;;9.05;45.77;98863.66;113808;1193;95221;-73
2021/10/23 01:37:17;;;;;;;12.20;2.30;;;;;;;9.01;45.84;98872.36;113653;1192;95697;-73
2021/10/23 01:39:44;;;;;;;13.60;2.70;;;;;;;9.00;45.85;98874.58;113691;1192;110796;-73
2021/10/23 01:42:12;;;;;;;8.80;2.20;;;;;;;8.99;45.89;98878.52;113651;1192;97641;-74
2021/10/23 01:44:42;;;;;;;8.20;2.20;;;;;;;8.98;45.89;98887.11;113619;1192;108287;-73
2021/10/23 01:47:10;;;;;;;7.30;2.30;;;;;;;8.99;45.89;98889.51;113629;1192;96041;-74
2021/10/23 01:49:38;;;;;;;7.80;2.20;;;;;;;8.99;45.92;98892.16;113599;1192;95694;-74
2021/10/23 01:52:06;;;;;;;10.20;2.30;;;;;;;8.99;46.00;98897.45;113567;1192;112406;-73
2021/10/23 01:54:34;;;;;;;11.60;2.40;;;;;;;9.00;45.99;98900.41;113621;1192;97499;-72
2021/10/23 01:57:03;;;;;;;9.10;2.70;;;;;;;9.00;46.05;98903.77;113625;1192;107566;-72
2021/10/23 01:59:31;;;;;;;9.70;2.70;;;;;;;9.00;46.01;98906.39;113638;1193;97576;-73
2021/10/23 02:02:01;;;;;;;8.80;2.20;;;;;;;9.00;46.03;98908.02;113645;1192;94958;-71
2021/10/23 02:04:30;;;;;;;12.00;2.30;;;;;;;8.99;46.06;98918.17;113596;1193;112114;-73
2021/10/23 02:06:58;;;;;;;10.60;2.20;;;;;;;8.96;46.19;98915.50;113403;1193;97624;-72
2021/10/23 02:09:26;;;;;;;12.70;2.50;;;;;;;8.94;46.18;98923.79;113616;1183;107532;-72
2021/10/23 02:11:53;;;;;;;11.40;2.70;;;;;;;8.92;46.33;98923.73;113663;1194;97664;-73
2021/10/23 02:14:22;;;;;;;8.20;2.70;;;;;;;8.91;46.30;98931.77;113729;1192;97672;-74
2021/10/23 02:16:50;;;;;;;10.50;2.20;;;;;;;8.91;46.61;98940.65;113636;1192;111161;-74
2021/10/23 02:19:18;;;;;;;10.70;3.00;;;;;;;8.88;46.44;98924.89;113646;1192;97615;-72
2021/10/23 02:21:46;;;;;;;5.30;2.30;;;;;;;8.87;46.53;98927.44;113649;1192;106524;-72
2021/10/23 02:24:14;;;;;;;11.50;3.10;;;;;;;8.86;46.34;98936.02;113668;1192;95105;-73
2021/10/23 02:26:43;;;;;;;8.60;2.50;;;;;;;8.85;46.51;98944.38;113651;1186;97571;-72
2021/10/23 02:29:11;;;;;;;9.30;2.20;;;;;;;8.84;46.58;98949.56;113389;1193;109400;-70
2021/10/23 02:31:39;;;;;;;11.90;3.20;;;;;;;8.84;46.66;98959.68;113683;1192;95148;-72
2021/10/23 02:34:07;;;;;;;14.00;3.00;;;;;;;8.81;46.75;98957.20;113666;1192;107614;-73
2021/10/23 02:36:34;;;;;;;9.30;2.90;;;;;;;8.80;46.64;98963.28;113619;1192;97733;-73
2021/10/23 02:39:04;;;;;;;9.10;2.60;;;;;;;8.79;46.93;98966.70;113661;1193;96480;-74
2021/10/23 02:41:32;;;;;;;8.50;2.60;;;;;;;8.76;46.71;98974.29;113682;1192;111210;-73
2021/10/23 02:44:00;;;;;;;9.30;3.00;;;;;;;8.76;46.69;98978.73;113720;1192;97556;-72
2021/10/23 02:46:28;;;;;;;13.30;2.70;;;;;;;8.75;46.58;98979.17;113653;1192;107950;-72
2021/10/23 02:48:57;;;;;;;10.50;3.00;;;;;;;8.75;47.01;98995.29;113692;1192;95141;-72
2021/10/23 02:51:24;;;;;;;8.90;2.60;;;;;;;8.72;47.05;98999.89;113690;1192;98016;-72
2021/10/23 02:53:52;;;;;;;11.50;3.30;;;;;;;8.69;46.85;99009.30;113681;1193;111158;-72
2021/10/23 02:56:20;;;;;;;12.60;3.10;;;;;;;8.67;46.81;99010.47;113697;1192;98224;-72
2021/10/23 02:58:48;;;;;;;9.50;2.70;;;;;;;8.66;46.87;99008.23;113669;1192;107596;-72
2021/10/23 03:01:16;;;;;;;13.20;3.20;;;;;;;8.64;47.09;99015.08;113703;1193;97671;-72
2021/10/23 03:03:45;;;;;;;11.50;2.90;;;;;;;8.58;47.42;99010.35;113791;1192;97674;-72
2021/10/23 03:06:18;;;;;;;11.20;2.90;;;;;;;8.52;47.14;99014.08;113782;1193;110334;-72
2021/10/23 03:08:47;;;;;;;10.90;3.20;;;;;;;8.49;47.00;99017.63;113777;1193;94931;-72
2021/10/23 03:11:17;;;;;;;10.60;3.50;;;;;;;8.46;47.15;99018.67;113766;1192;106623;-73
2021/10/23 03:13:45;;;;;;;11.70;3.30;;;;;;;8.40;47.13;99019.04;113770;1193;97644;-72
2021/10/23 03:16:13;;;;;;;11.50;3.50;;;;;;;8.37;47.34;99028.60;113753;1193;97621;-72
2021/10/23 03:18:41;;;;;;;10.30;3.30;;;;;;;8.34;47.95;99037.12;113795;1193;111091;-71
2021/10/23 03:21:11;;;;;;;11.40;3.20;;;;;;;8.29;47.71;99037.63;113686;1193;97581;-72
2021/10/23 03:23:40;;;;;;;8.90;2.80;;;;;;;8.27;47.27;99042.83;113733;1192;107484;-72
2021/10/23 03:26:07;;;;;;;9.80;3.20;;;;;;;8.26;48.44;99048.57;113769;1193;97682;-73
2021/10/23 03:28:35;;;;;;;9.90;2.40;;;;;;;8.24;47.69;99051.03;113780;1193;97751;-73
2021/10/23 03:31:03;;;;;;;13.40;3.20;;;;;;;8.22;47.71;99051.31;113775;1193;109614;-73
2021/10/23 03:33:31;;;;;;;11.70;3.50;;;;;;;8.20;47.72;99056.86;113482;1193;96158;-72
2021/10/23 03:35:59;;;;;;;7.90;2.90;;;;;;;8.20;48.45;99067.34;113723;1193;107542;-71
2021/10/23 03:38:26;;;;;;;11.80;3.00;;;;;;;8.16;49.41;99068.62;113761;1192;98249;-73
2021/10/23 03:40:54;;;;;;;11.70;2.90;;;;;;;8.08;48.97;99063.09;113785;1193;95027;-73
2021/10/23 03:43:22;;;;;;;10.30;2.70;;;;;;;7.99;49.12;99059.22;113707;1192;112132;-70
2021/10/23 03:45:50;;;;;;;11.00;3.20;;;;;;;7.91;48.68;99060.10;113772;1193;97644;-72
2021/10/23 03:48:21;;;;;;;9.80;2.80;;;;;;;7.86;48.25;99064.48;113675;1193;108470;-73
2021/10/23 03:50:49;;;;;;;10.10;2.90;;;;;;;7.81;48.66;99060.88;113449;1193;95072;-73
2021/10/23 03:53:17;;;;;;;8.70;2.70;;;;;;;7.76;49.34;99069.14;113743;1193;97649;-72
2021/10/23 03:55:49;;;;;;;9.20;2.70;;;;;;;7.68;49.03;99069.06;113764;1177;111319;-72
2021/10/23 03:58:19;;;;;;;7.90;2.70;;;;;;;7.63;48.80;99070.65;113776;1193;97569;-72
2021/10/23 04:00:47;;;;;;;11.30;3.00;;;;;;;7.60;48.48;99071.49;113777;1192;108533;-71
2021/10/23 04:03:16;;;;;;;8.70;2.90;;;;;;;7.56;48.85;99074.19;113663;1192;95087;-72
2021/10/23 04:05:45;;;;;;;10.40;3.10;;;;;;;7.50;48.77;99071.39;113698;1192;97537;-72
2021/10/23 04:08:13;;;;;;;12.50;2.60;;;;;;;7.46;48.81;99074.82;113656;1192;111116;-72
2021/10/23 04:10:41;;;;;;;10.70;2.90;;;;;;;7.41;48.71;99076.50;113710;1192;98676;-72
2021/10/23 04:13:10;;;;;;;8.90;2.90;;;;;;;7.37;49.05;99080.98;113612;1192;107716;-72
2021/10/23 04:15:38;;;;;;;15.40;2.80;;;;;;;7.33;48.90;99088.28;113437;1193;97702;-72
2021/10/23 04:18:06;;;;;;;12.30;2.60;;;;;;;7.30;49.53;99093.41;113641;1192;97565;-72
2021/10/23 04:20:33;;;;;;;10.20;2.40;;;;;;;7.25;49.36;99094.92;113678;1192;111168;-72
2021/10/23 04:23:01;;;;;;;10.50;2.70;;;;;;;7.19;50.37;99101.77;113441;1193;96811;-73
2021/10/23 04:25:29;;;;;;;12.50;2.50;;;;;;;7.13;49.94;99107.06;113669;1193;107324;-73
2021/10/23 04:27:57;;;;;;;6.70;2.10;;;;;;;7.09;49.48;99115.23;113650;1192;96905;-71
2021/10/23 04:30:27;;;;;;;7.60;2.40;;;;;;;7.07;49.43;99114.84;113671;1186;95395;-72
2021/10/23 04:32:54;;;;;;;8.20;2.10;;;;;;;7.03;49.87;99116.46;113689;1192;111057;-72
2021/10/23 04:35:22;;;;;;;8.40;2.70;;;;;;;6.98;50.18;99111.27;113444;1193;97651;-73
2021/10/23 04:37:51;;;;;;;7.20;2.20;;;;;;;6.95;49.86;99111.92;113586;1192;107505;-71
2021/10/23 04:40:19;;;;;;;9.30;2.50;;;;;;;6.92;51.08;99121.30;113405;1194;97727;-72
2021/10/23 04:42:48;;;;;;;6.70;2.30;;;;;;;6.88;50.27;99122.06;113546;1192;97607;-72
2021/10/23 04:45:16;;;;;;;10.50;2.40;;;;;;;6.84;50.11;99129.13;113433;1193;110820;-71
2021/10/23 04:47:44;;;;;;;7.00;2.00;;;;;;;6.81;51.49;99134.23;113631;1193;97645;-72
2021/10/23 04:50:12;;;;;;;9.00;2.40;;;;;;;6.78;50.69;99132.67;113659;1192;107538;-72
2021/10/23 04:52:39;;;;;;;6.00;1.60;;;;;;;6.76;50.57;99137.53;113615;1192;97596;-72
2021/10/23 04:55:08;;;;;;;9.60;2.60;;;;;;;6.74;51.21;99151.39;113712;1192;97643;-73
2021/10/23 04:57:35;;;;;;;9.30;2.60;;;;;;;6.72;51.26;99148.66;113671;1192;110996;-72
2021/10/23 05:00:04;;;;;;;9.80;2.80;;;;;;;6.70;50.52;99152.29;113697;1192;95055;-71
2021/10/23 05:02:31;;;;;;;12.10;2.80;;;;;;;6.68;50.92;99148.00;113241;1194;107628;-71
2021/10/23 05:05:00;;;;;;;9.50;2.70;;;;;;;6.66;50.56;99151.11;113741;1192;97521;-72
2021/10/23 05:07:28;;;;;;;9.30;2.70;;;;;;;6.67;50.40;99151.22;113806;1192;97519;-74
2021/10/23 05:09:58;;;;;;;12.50;3.30;;;;;;;6.69;50.99;99151.65;113633;1192;110925;-72
2021/10/23 05:12:26;;;;;;;10.10;3.10;;;;;;;6.66;50.79;99148.64;113812;1192;97669;-73
2021/10/23 05:14:54;;;;;;;12.50;3.70;;;;;;;6.64;51.88;99158.97;113745;1192;107332;-72
2021/10/23 05:17:22;;;;;;;10.00;3.30;;;;;;;6.61;51.12;99153.70;113785;1193;97609;-72
2021/10/23 05:19:54;;;;;;;14.80;4.10;;;;;;;6.58;52.07;99160.89;113783;1192;97644;-73
2021/10/23 05:22:22;;;;;;;13.10;3.50;;;;;;;6.53;52.55;99167.31;113781;1193;111165;-72
2021/10/23 05:24:50;;;;;;;9.20;3.00;;;;;;;6.48;52.56;99174.80;113782;1192;97771;-71
2021/10/23 05:27:18;;;;;;;7.50;2.70;;;;;;;6.47;52.05;99181.60;113719;1193;107574;-72
2021/10/23 05:29:46;;;;;;;10.30;2.60;;;;;;;6.45;52.39;99185.95;113733;1192;97691;-71
2021/10/23 05:32:14;;;;;;;8.70;2.50;;;;;;;6.43;51.95;99195.00;113748;1192;97551;-72
2021/10/23 05:34:42;;;;;;;8.90;3.20;;;;;;;6.44;52.15;99203.39;113686;1192;111172;-73
2021/10/23 05:37:10;;;;;;;10.20;2.70;;;;;;;6.44;52.01;99205.71;113634;1192;97644;-73
2021/10/23 05:39:37;;;;;;;6.10;2.00;;;;;;;6.44;52.23;99211.00;113638;1192;107446;-73
2021/10/23 05:42:05;;;;;;;8.50;2.50;;;;;;;6.43;51.68;99214.38;113770;1193;97647;-72
2021/10/23 05:44:35;;;;;;;11.60;3.10;;;;;;;6.44;51.85;99219.44;113759;1192;96047;-73
2021/10/23 05:47:03;;;;;;;9.70;2.80;;;;;;;6.45;52.41;99227.51;113771;1193;111091;-71
2021/10/23 05:49:30;;;;;;;14.80;4.10;;;;;;;6.43;53.03;99227.80;113796;1193;95749;-72
2021/10/23 05:51:58;;;;;;;11.70;3.80;;;;;;;6.41;52.47;99232.44;113708;1192;107511;-72
2021/10/23 05:54:26;;;;;;;12.10;3.10;;;;;;;6.41;52.67;99232.81;113665;1193;97951;-73
2021/10/23 05:56:56;;;;;;;13.80;3.10;;;;;;;6.39;52.42;99231.83;113695;1193;97532;-72
2021/10/23 05:59:24;;;;;;;12.80;4.30;;;;;;;6.38;53.74;99236.30;113733;1192;110182;-74
2021/10/23 06:02:00;;;;;;;12.40;4.00;;;;;;;6.34;53.56;99242.11;113752;1192;97637;-74
2021/10/23 06:04:28;;;;;;;10.30;3.10;;;;;;;6.33;52.57;99246.08;113718;1193;107352;-72
2021/10/23 06:06:56;;;;;;;14.50;3.70;;;;;;;6.32;52.51;99251.21;113612;1193;95029;-73
2021/10/23 06:09:23;;;;;;;14.70;3.80;;;;;;;6.33;52.34;99252.77;113684;1192;97633;-73
2021/10/23 06:11:59;;;;;;;19.90;4.90;;;;;;;6.31;53.20;99255.48;113652;1192;110791;-73
2021/10/23 06:14:29;;;;;;;15.20;4.50;;;;;;;6.29;53.97;99260.77;113755;1193;95010;-69
2021/10/23 06:16:57;;;;;;;11.30;3.80;;;;;;;6.27;52.99;99268.39;113789;1193;107129;-69
2021/10/23 06:19:25;;;;;;;16.00;3.70;;;;;;;6.27;53.31;99271.04;113471;1193;97720;-70
2021/10/23 06:21:53;;;;;;;12.30;4.00;;;;;;;6.26;54.77;99278.11;113565;1177;96364;-71
2021/10/23 06:24:20;;;;;;;16.00;3.10;;;;;;;6.26;53.65;99283.05;113519;1193;111332;-70
2021/10/23 06:26:48;;;;;;;12.00;3.40;;;;;;;6.27;54.09;99296.39;113555;1193;97547;-69
2021/10/23 06:29:16;;;;;;;12.00;3.10;;;;;;;6.28;53.34;99293.52;113737;1193;107349;-71
2021/10/23 06:31:44;;;;;;;13.10;3.80;;;;;;;6.31;53.26;99297.58;113588;1193;96882;-71
2021/10/23 06:34:12;;;;;;;15.90;3.70;;;;;;;6.33;53.79;99300.14;113618;1192;97648;-74
2021/10/23 06:36:41;;;;;;;14.80;3.60;;;;;;;6.36;54.03;99301.06;113627;1192;110947;-72
2021/10/23 06:39:10;;;;;;;12.30;3.90;;;;;;;6.39;53.55;99299.33;113659;1193;97568;-72
2021/10/23 06:41:39;;;;;;;18.10;4.90;;;;;;;6.40;53.77;99301.36;113327;1194;108065;-72
2021/10/23 06:44:07;;;;;;;15.20;4.10;;;;;;;6.43;53.57;99305.12;113481;1193;97670;-71
2021/10/23 06:46:38;;;;;;;16.00;4.30;;;;;;;6.44;54.09;99309.61;113552;1192;96128;-72
2021/10/23 06:49:09;;;;;;;14.30;4.30;;;;;;;6.46;54.31;99317.09;113615;1192;111094;-71
2021/10/23 06:51:37;;;;;;;15.60;4.50;;;;;;;6.50;53.78;99319.88;113533;1193;97628;-75
2021/10/23 06:54:06;;;;;;;15.80;3.70;;;;;;;6.53;53.69;99331.00;113583;1177;107524;-75
2021/10/23 06:56:33;;;;;;;16.60;4.00;;;;;;;6.56;54.86;99335.59;113584;1193;95167;-73
2021/10/23 06:59:01;;;;;;;14.80;4.30;;;;;;;6.58;53.97;99341.16;113681;1193;97550;-70
2021/10/23 07:01:29;;;;;;;14.00;4.10;;;;;;;6.60;54.68;99352.48;113167;1193;111166;-70
2021/10/23 07:03:59;;;;;;;12.80;3.50;;;;;;;6.65;54.29;99359.99;113506;1193;97600;-70
2021/10/23 07:06:27;;;;;;;16.10;5.80;;;;;;;6.72;54.23;99361.55;113570;1192;107509;-70
2021/10/23 07:08:55;;;;;;;14.20;3.80;;;;;;;6.76;54.69;99365.23;113670;1192;98208;-68
2021/10/23 07:11:23;;;;;;;12.00;3.70;;;;;;;6.78;54.26;99370.61;113032;1193;98663;-69
2021/10/23 07:13:51;;;;;;;15.60;3.10;;;;;;;6.80;55.73;99378.27;113574;1193;110031;-70
2021/10/23 07:16:21;;;;;;;15.50;3.70;;;;;;;6.80;54.96;99379.66;113549;1193;97573;-70
2021/10/23 07:18:50;;;;;;;16.50;3.50;;;;;;;6.84;54.39;99383.69;113555;1192;108492;-70
2021/10/23 07:21:19;;;;;;;13.60;3.50;;;;;;;6.89;54.81;99390.83;113812;1192;98039;-68
2021/10/23 07:23:47;;;;;;;15.00;3.90;;;;;;;6.91;54.46;99387.39;113665;1193;97654;-67
2021/10/23 07:26:15;;;;;;;14.90;4.10;;;;;;;6.95;54.32;99390.70;113574;1193;111596;-67
2021/10/23 07:28:47;;;;;;;9.60;3.50;;;;;;;6.99;54.61;99391.52;113554;1193;95042;-69
2021/10/23 07:31:16;;;;;;;13.10;4.00;;;;;;;7.04;54.46;99393.95;113743;1193;108276;-68
2021/10/23 07:33:46;;;;;;;16.10;4.30;;;;;;;7.10;54.37;99396.63;113644;1192;97553;-67
2021/10/23 07:36:18;;;;;;;18.50;5.40;;;;;;;7.17;54.37;99398.89;113412;1196;97635;-70
2021/10/23 07:38:48;;;;;;;20.80;5.30;;;;;;;7.26;54.54;99397.52;113540;1193;110557;-74
2021/10/23 07:41:18;;;;;;;15.20;3.60;;;;;;;7.35;54.62;99402.16;113417;1193;96941;-71
2021/10/23 07:43:46;;;;;;;18.50;4.20;;;;;;;7.45;54.63;99402.48;113610;1192;107492;-71
2021/10/23 07:46:15;;;;;;;18.50;3.90;;;;;;;7.53;54.74;99405.30;113691;1193;95125;-69
2021/10/23 07:48:45;;;;;;;23.40;4.00;;;;;;;7.61;54.74;99410.66;113601;1192;97013;-71
2021/10/23 07:51:14;;;;;;;12.90;3.40;;;;;;;7.66;54.49;99411.62;113281;1193;110744;-71
2021/10/23 07:53:42;;;;;;;12.10;2.80;;;;;;;7.70;54.74;99407.36;113581;1192;97628;-70
2021/10/23 07:56:10;;;;;;;11.10;3.20;;;;;;;7.73;54.93;99405.76;113498;1193;107548;-70
2021/10/23 07:58:37;;;;;;;10.30;3.00;;;;;;;7.79;54.63;99404.73;113708;1192;97569;-75
2021/10/23 08:01:05;;;;;;;16.50;3.00;;;;;;;7.84;54.54;99403.20;113566;1193;96900;-72
2021/10/23 08:03:33;;;;;;;14.90;3.50;;;;;;;7.89;54.70;99398.34;113568;1193;111174;-75
2021/10/23 08:06:04;;;;;;;11.80;4.00;;;;;;;8.00;54.67;99397.19;113659;1193;97637;-75
2021/10/23 08:08:32;;;;;;;15.60;3.00;;;;;;;8.14;54.84;99397.63;113853;1192;107526;-73
2021/10/23 08:11:04;;;;;;;11.90;3.00;;;;;;;8.26;54.98;99394.64;113825;1192;97663;-73
2021/10/23 08:13:34;;;;;;;13.90;2.70;;;;;;;8.34;54.82;99401.05;113699;1192;95769;-75
2021/10/23 08:16:06;;;;;;;12.10;3.30;;;;;;;8.40;54.90;99398.46;113778;1192;111199;-74
2021/10/23 08:18:34;;;;;;;14.60;3.50;;;;;;;8.45;54.98;99398.19;113504;1193;97553;-77
2021/10/23 08:21:03;;;;;;;14.70;3.10;;;;;;;8.50;54.85;99391.52;113735;1193;107913;-75
2021/10/23 08:23:33;;;;;;;13.50;3.80;;;;;;;8.61;55.01;99388.41;114366;1192;97569;-72
2021/10/23 08:26:02;;;;;;;12.80;2.80;;;;;;;8.72;54.85;99389.16;113744;1183;95765;-72
2021/10/23 08:28:30;;;;;;;13.40;3.00;;;;;;;8.81;54.62;99387.42;113335;1192;110963;-75
2021/10/23 08:30:58;;;;;;;9.10;3.00;;;;;;;8.85;54.64;99390.71;113622;1193;97650;-73
2021/10/23 08:33:25;;;;;;;16.20;2.70;;;;;;;8.83;54.44;99398.80;113435;1193;106710;-74
2021/10/23 08:35:53;;;;;;;16.60;2.70;;;;;;;8.77;54.04;99401.09;113624;1193;97676;-80
2021/10/23 08:38:21;;;;;;;20.70;3.60;;;;;;;8.92;54.63;99395.97;113797;1193;97644;-77
2021/10/23 08:40:55;;;;;;;14.60;3.70;;;;;;;9.25;54.57;99402.05;113682;1192;110787;-74
2021/10/23 08:43:26;;;;;;;13.60;2.80;;;;;;;9.60;54.54;99400.96;113768;1192;95806;-70
2021/10/23 08:45:59;;;;;;;15.80;3.50;;;;;;;9.85;53.61;99401.88;113798;1193;107517;-71
2021/10/23 08:48:32;;;;;;;13.90;3.00;;;;;;;9.94;54.15;99398.14;113823;1193;97609;-72
2021/10/23 08:51:03;;;;;;;16.40;3.10;;;;;;;10.03;53.42;99395.09;113881;1192;97606;-70
2021/10/23 08:53:44;;;;;;;13.90;3.00;;;;;;;10.02;53.36;99399.71;113779;1193;111285;-71
2021/10/23 08:56:12;;;;;;;15.80;3.20;;;;;;;10.12;53.51;99404.02;113627;1192;97551;-70
2021/10/23 08:58:42;;;;;;;14.60;3.20;;;;;;;10.38;53.56;99399.20;113688;1193;107487;-71
2021/10/23 09:01:14;;;;;;;14.00;3.20;;;;;;;10.47;53.77;99402.71;113781;1192;97640;-68
2021/10/23 09:03:47;;;;;;;14.10;3.20;;;;;;;10.65;53.80;99398.80;113855;1192;97519;-69
2021/10/23 09:06:35;;;;;;;16.30;4.30;;;;;;;10.66;53.37;99403.52;113420;1193;110868;-70
2021/10/23 09:09:10;;;;;;;14.50;2.60;;;;;;;10.91;52.67;99409.29;113502;1193;94939;-73
2021/10/23 09:11:44;;;;;;;15.40;3.00;;;;;;;11.11;52.33;99402.61;113655;1193;107234;-74
2021/10/23 09:14:34;;;;;;;11.40;2.50;;;;;;;11.41;52.91;99410.67;113651;1184;97691;-74
2021/10/23 09:17:09;;;;;;;11.60;2.70;;;;;;;11.41;53.11;99410.30;113479;1193;97539;-72
2021/10/23 09:19:50;;;;;;;12.90;2.60;;;;;;;11.45;51.75;99416.54;113495;1193;110124;-74
2021/10/23 09:22:36;;;;;;;14.00;3.30;;;;;;;11.54;50.87;99414.34;113711;1193;95719;-73
2021/10/23 09:25:21;;;;;;;12.70;3.00;;;;;;;11.54;52.91;99413.13;113578;1190;107567;-74
2021/10/23 09:28:05;;;;;;;11.80;3.30;;;;;;;11.71;52.76;99416.66;113669;1192;97551;-72
2021/10/23 09:30:42;;;;;;;14.60;3.80;;;;;;;11.83;52.61;99407.66;113652;1193;95486;-71
2021/10/23 09:33:23;;;;;;;15.90;3.30;;;;;;;11.87;52.73;99412.72;113643;1192;110755;-76
2021/10/23 09:35:55;;;;;;;12.40;3.10;;;;;;;11.95;52.80;99423.75;113648;1192;97627;-75
2021/10/23 09:38:25;;;;;;;18.50;3.20;;;;;;;11.90;52.19;99420.85;113287;1193;107707;-73
2021/10/23 09:40:56;;;;;;;9.00;3.30;;;;;;;11.70;51.63;99424.04;113477;1193;97716;-71
2021/10/23 09:43:28;;;;;;;13.50;3.10;;;;;;;11.48;51.60;99421.16;113592;1193;97520;-70
2021/10/23 09:45:59;;;;;;;8.70;2.90;;;;;;;11.26;51.79;99420.25;113679;1192;111692;-72
2021/10/23 09:48:34;;;;;;;12.10;3.00;;;;;;;11.04;50.64;99417.27;113821;1193;97556;-70
2021/10/23 09:51:24;;;;;;;14.80;3.00;;;;;;;10.79;50.99;99415.09;113363;1193;107455;-69
2021/10/23 09:53:58;;;;;;;13.60;2.80;;;;;;;10.56;51.55;99407.58;113523;1193;96705;-70
2021/10/23 09:56:30;;;;;;;15.90;3.20;;;;;;;10.44;51.40;99401.61;113792;1193;96922;-73
2021/10/23 09:59:07;;;;;;;12.50;2.90;;;;;;;10.36;51.19;99406.41;113553;1193;111260;-70
2021/10/23 10:01:41;;;;;;;9.80;2.80;;;;;;;10.27;51.24;99406.27;113765;1187;97673;-73
2021/10/23 10:04:12;;;;;;;15.20;3.00;;;;;;;10.29;50.94;99405.98;113744;1192;107530;-73
2021/10/23 10:06:46;;;;;;;13.30;2.80;;;;;;;10.36;51.24;99405.30;113582;1193;97618;-74
2021/10/23 10:09:16;;;;;;;9.70;2.70;;;;;;;10.49;51.02;99401.30;113689;1193;95125;-74
2021/10/23 10:11:49;;;;;;;16.50;3.00;;;;;;;10.59;50.67;99408.96;113636;1192;111132;-71
2021/10/23 10:14:24;;;;;;;14.30;3.00;;;;;;;10.64;50.44;99406.16;113692;1187;97273;-74
2021/10/23 10:16:57;;;;;;;16.20;3.40;;;;;;;10.65;50.08;99396.88;113734;1192;107772;-71
2021/10/23 10:19:26;;;;;;;18.00;3.40;;;;;;;10.73;50.75;99403.10;113678;1193;97608;-70
2021/10/23 10:22:03;;;;;;;20.90;4.30;;;;;;;10.86;51.16;99401.66;113552;1193;96474;-70
2021/10/23 10:24:38;;;;;;;15.70;4.00;;;;;;;11.00;51.07;99398.60;113706;1193;110730;-71
2021/10/23 10:27:12;;;;;;;18.50;4.60;;;;;;;11.06;50.20;99403.31;113419;1193;97566;-71
2021/10/23 10:29:48;;;;;;;18.80;5.20;;;;;;;11.01;50.22;99401.70;113481;1193;105855;-70
2021/10/23 10:32:41;;;;;;;16.00;3.30;;;;;;;10.97;49.58;99392.41;113664;1193;98300;-71
2021/10/23 10:35:53;;;;;;;16.50;3.60;;;;;;;10.87;49.96;99395.76;113553;1193;95456;-72
2021/10/23 10:44:12;;;;;;;13.40;2.90;;;;;;;10.81;50.23;99400.90;113240;1196;108113;-69
2021/10/23 10:47:05;;;;;;;15.80;3.10;;;;;;;10.93;50.24;99403.66;113687;1193;97561;-68
2021/10/23 10:49:55;;;;;;;9.90;2.70;;;;;;;11.01;50.20;99407.75;113469;1193;97641;-69
2021/10/23 10:52:38;;;;;;;12.50;3.10;;;;;;;10.99;49.88;99405.25;113302;1193;111190;-71
2021/10/23 10:55:15;;;;;;;14.80;2.60;;;;;;;10.96;49.77;99405.41;113554;1192;95901;-69
2021/10/23 10:58:06;;;;;;;13.10;3.00;;;;;;;10.90;48.63;99407.43;113744;1193;107546;-70
2021/10/23 11:00:48;;;;;;;12.00;2.80;;;;;;;10.81;48.89;99405.87;113665;1193;97640;-70
2021/10/23 11:03:43;;;;;;;12.00;2.80;;;;;;;10.76;49.12;99411.89;113307;1193;97582;-73
2021/10/23 11:06:33;;;;;;;17.00;3.40;;;;;;;10.75;49.42;99410.19;113412;1193;110521;-70
2021/10/23 11:09:07;;;;;;;11.20;2.70;;;;;;;10.70;49.77;99417.07;113465;1193;97565;-71
2021/10/23 11:11:42;;;;;;;11.90;2.30;;;;;;;10.70;49.76;99417.61;113415;1193;107953;-73
2021/10/23 11:14:24;;;;;;;16.90;4.10;;;;;;;10.71;49.55;99416.15;113450;1193;97567;-69
2021/10/23 11:16:58;;;;;;;17.20;3.90;;;;;;;10.64;49.22;99424.95;113347;1193;95782;-70
2021/10/23 11:19:34;;;;;;;17.00;3.70;;;;;;;10.61;49.67;99422.36;113316;1193;111460;-71
2021/10/23 11:22:21;;;;;;;14.70;3.10;;;;;;;10.64;49.62;99427.98;113234;1193;98093;-70
2021/10/23 11:25:09;;;;;;;12.20;3.40;;;;;;;10.75;49.66;99430.09;113213;1193;107644;-75
2021/10/23 11:27:50;;;;;;;16.40;3.90;;;;;;;10.86;49.37;99433.23;113275;1193;95122;-72
2021/10/23 11:30:20;;;;;;;;;;;;;;;10.96;49.35;99438.46;113236;1193;98376;-71
2021/10/23 11:32:58;;;;;;;16.30;3.40;;;;;;;10.94;49.49;99439.97;113314;1193;111176;-72
2021/10/23 11:35:41;;;;;;;14.50;3.90;;;;;;;10.94;49.38;99445.32;113316;1193;96893;-71
2021/10/23 11:38:17;;;;;;;15.50;4.10;;;;;;;10.89;49.38;99442.42;113199;1193;107374;-71
2021/10/23 11:40:51;;;;;;;15.70;3.80;;;;;;;10.82;49.22;99444.15;113278;1193;97650;-73
2021/10/23 11:43:20;;;;;;;15.80;3.70;;;;;;;10.73;49.43;99448.68;113210;1193;97687;-71